Time;durP1;ratioP1;P1;durP2;ratioP2;P2;SDS_P1;SDS_P2;PMS_P1;PMS_P2;Temp;Humidity;BMP_temperature;BMP_pressure;BME280_temperature;BME280_humidity;BME280_pressure;Samples;Min_cycle;Max_cycle;Signal;HPM_P1;HPM_P2
2022/09/11 00:01:11;;;;;;;113.55;32.40;;;11.50;99.90;;;;;;5036391;28;20459;-42
2022/09/11 00:03:37;;;;;;;256.65;49.20;;;11.60;99.90;;;;;;5035213;28;20092;-42
2022/09/11 00:06:05;;;;;;;171.30;42.42;;;11.70;99.90;;;;;;5035581;28;20134;-42
2022/09/11 00:08:31;;;;;;;147.43;44.15;;;11.70;99.90;;;;;;5036712;28;20391;-42
2022/09/11 00:11:09;;;;;;;162.50;44.65;;;11.70;99.90;;;;;;5018753;28;20057;-42
2022/09/11 00:13:36;;;;;;;139.63;45.20;;;11.80;99.90;;;;;;5036138;28;20045;-42
2022/09/11 00:16:04;;;;;;;59.42;29.92;;;11.80;99.90;;;;;;5035969;28;20046;-42
2022/09/11 00:18:30;;;;;;;67.78;32.38;;;11.80;99.90;;;;;;5035185;28;20052;-42
2022/09/11 00:20:57;;;;;;;102.25;38.60;;;11.70;99.90;;;;;;5036028;28;20128;-41
2022/09/11 00:23:25;;;;;;;138.10;43.38;;;11.90;99.90;;;;;;5036854;28;20068;-42
2022/09/11 00:25:51;;;;;;;481.17;58.47;;;11.80;99.90;;;;;;5034809;28;20049;-42
2022/09/11 00:28:23;;;;;;;522.45;59.30;;;11.90;99.90;;;;;;5034727;28;20164;-42
2022/09/11 00:31:04;;;;;;;619.40;68.97;;;11.90;99.90;;;;;;5036221;28;20084;-42
2022/09/11 00:33:30;;;;;;;651.35;66.00;;;11.80;99.90;;;;;;5035779;28;20080;-42
2022/09/11 00:35:58;;;;;;;688.60;55.97;;;11.80;99.90;;;;;;5034873;28;20049;-42
2022/09/11 00:38:28;;;;;;;635.28;51.65;;;11.60;99.90;;;;;;5035437;28;20144;-42
2022/09/11 00:40:57;;;;;;;553.15;55.15;;;11.70;99.90;;;;;;5035408;28;20381;-42
2022/09/11 00:43:23;;;;;;;1001.55;73.05;;;11.50;99.90;;;;;;5035868;28;20045;-42
2022/09/11 00:45:57;;;;;;;918.40;64.07;;;11.60;99.90;;;;;;5035508;28;20506;-42
2022/09/11 00:48:25;;;;;;;1189.28;74.43;;;11.70;99.90;;;;;;5034950;28;20045;-42
2022/09/11 00:50:53;;;;;;;846.97;62.55;;;11.50;99.90;;;;;;5035774;28;20398;-42
2022/09/11 00:53:22;;;;;;;1070.70;80.03;;;11.60;99.90;;;;;;5035431;28;20085;-42
2022/09/11 00:55:52;;;;;;;1133.57;82.88;;;11.60;99.90;;;;;;5035610;28;20088;-42
2022/09/11 00:58:25;;;;;;;936.35;70.63;;;11.50;99.90;;;;;;5035343;28;20045;-41
2022/09/11 01:00:54;;;;;;;1129.82;66.05;;;11.50;99.90;;;;;;5017821;28;20052;-41
2022/09/11 01:03:21;;;;;;;1253.28;82.75;;;11.60;99.90;;;;;;5035228;28;20450;-41
2022/09/11 01:05:47;;;;;;;1195.20;71.80;;;11.60;99.90;;;;;;5034872;28;20411;-42
2022/09/11 01:08:13;;;;;;;1053.30;67.95;;;11.50;99.90;;;;;;5035119;28;20116;-42
2022/09/11 01:11:16;;;;;;;815.08;66.32;;;11.40;99.90;;;;;;5035634;28;20041;-41
2022/09/11 01:14:05;;;;;;;726.83;61.20;;;11.50;99.90;;;;;;5035625;28;20046;-41
2022/09/11 01:16:55;;;;;;;497.92;55.50;;;11.50;99.90;;;;;;5033861;28;20053;-41
2022/09/11 01:19:41;;;;;;;1036.68;83.40;;;11.40;99.90;;;;;;5018308;28;20057;-42
2022/09/11 01:22:23;;;;;;;1000.15;67.78;;;11.50;99.90;;;;;;5034868;28;20060;-44
2022/09/11 01:25:03;;;;;;;1312.30;78.88;;;11.40;99.90;;;;;;5034885;28;20060;-42
2022/09/11 01:27:32;;;;;;;1432.65;89.20;;;11.50;99.90;;;;;;5034593;28;20045;-43
2022/09/11 01:30:06;;;;;;;1082.53;73.22;;;11.50;99.90;;;;;;5035012;28;20049;-43
2022/09/11 01:33:05;;;;;;;1030.50;73.43;;;11.60;99.90;;;;;;5034176;28;20045;-43
2022/09/11 01:35:59;;;;;;;977.67;66.57;;;11.60;99.90;;;;;;5035253;28;20062;-42
2022/09/11 01:38:39;;;;;;;744.15;58.00;;;11.60;99.90;;;;;;5033504;28;20486;-42
2022/09/11 01:41:12;;;;;;;1086.68;75.40;;;11.50;99.90;;;;;;5034766;28;20048;-42
2022/09/11 01:43:50;;;;;;;1079.32;62.63;;;11.50;99.90;;;;;;5035364;28;20075;-42
2022/09/11 01:46:21;;;;;;;1357.18;76.32;;;11.30;99.90;;;;;;5034409;28;20055;-42
2022/09/11 01:48:51;;;;;;;1623.40;84.38;;;11.40;99.90;;;;;;5033146;28;20533;-42
2022/09/11 01:51:26;;;;;;;1117.05;75.00;;;11.30;99.90;;;;;;5034663;28;20075;-42
2022/09/11 01:53:55;;;;;;;1039.63;74.55;;;11.20;99.90;;;;;;5034341;28;20053;-43
2022/09/11 01:56:28;;;;;;;1063.95;78.40;;;11.10;99.90;;;;;;5034223;28;20124;-43
2022/09/11 01:59:00;;;;;;;730.58;43.88;;;11.20;99.90;;;;;;5034799;28;20049;-43
2022/09/11 02:01:37;;;;;;;594.65;43.92;;;11.20;99.90;;;;;;5034200;28;20045;-42
2022/09/11 02:04:09;;;;;;;603.60;41.40;;;11.20;99.90;;;;;;5034158;28;20056;-43
2022/09/11 02:07:02;;;;;;;319.97;29.57;;;11.10;99.90;;;;;;5034662;28;20049;-42
2022/09/11 02:09:36;;;;;;;840.38;65.93;;;11.00;99.90;;;;;;5034396;28;20363;-43
2022/09/11 02:12:06;;;;;;;219.30;27.35;;;11.10;99.90;;;;;;5034634;28;20061;-42
2022/09/11 02:14:39;;;;;;;521.47;36.15;;;10.90;99.90;;;;;;5032830;28;20083;-42
2022/09/11 02:17:07;;;;;;;;;;;11.00;99.90;;;;;;5034412;28;20045;-42
2022/09/11 02:19:33;;;;;;;639.53;38.33;;;10.90;99.90;;;;;;5034212;28;19921;-43
2022/09/11 02:21:59;;;;;;;974.33;68.85;;;10.90;99.90;;;;;;5033173;28;20041;-43
2022/09/11 02:24:26;;;;;;;828.88;61.00;;;11.10;99.90;;;;;;5033482;28;20067;-43
2022/09/11 02:27:01;;;;;;;1052.57;72.63;;;11.10;99.90;;;;;;5033726;28;20048;-43
2022/09/11 02:29:27;;;;;;;626.53;49.58;;;11.10;99.90;;;;;;5033833;28;20049;-43
2022/09/11 02:31:54;;;;;;;1005.85;71.65;;;11.00;99.90;;;;;;5033771;28;20078;-43
2022/09/11 02:34:25;;;;;;;524.22;42.90;;;11.00;99.90;;;;;;5032596;28;20050;-42
2022/09/11 02:37:22;;;;;;;361.63;33.78;;;11.20;99.90;;;;;;5032977;28;20111;-43
2022/09/11 02:40:25;;;;;;;274.75;34.30;;;11.20;99.90;;;;;;5033246;28;20069;-43
2022/09/11 02:43:22;;;;;;;137.80;31.52;;;11.20;99.90;;;;;;5033991;28;20057;-43
2022/09/11 02:46:10;;;;;;;82.80;24.75;;;11.20;99.90;;;;;;5032571;28;20049;-43
2022/09/11 02:48:44;;;;;;;34.17;21.00;;;11.10;99.90;;;;;;5033549;28;20072;-43
2022/09/11 02:51:31;;;;;;;62.92;27.77;;;11.00;99.90;;;;;;5033581;28;20559;-43
2022/09/11 02:54:33;;;;;;;313.23;36.22;;;11.10;99.90;;;;;;5033575;28;20059;-43
2022/09/11 02:57:22;;;;;;;333.67;30.80;;;11.00;99.90;;;;;;5034353;28;20391;-43
2022/09/11 03:00:01;;;;;;;151.48;33.53;;;11.00;99.90;;;;;;5032286;28;20049;-43
2022/09/11 03:02:29;;;;;;;505.13;60.78;;;10.90;99.90;;;;;;5032834;28;20068;-43
2022/09/11 03:04:55;;;;;;;837.30;79.32;;;11.00;99.90;;;;;;5033422;28;20052;-43
2022/09/11 03:07:24;;;;;;;640.95;67.32;;;10.90;99.90;;;;;;5032178;28;20049;-44
2022/09/11 03:09:50;;;;;;;558.08;47.45;;;10.90;99.90;;;;;;5032391;28;20052;-43
2022/09/11 03:12:16;;;;;;;618.97;58.33;;;11.00;99.90;;;;;;5033348;28;20096;-43
2022/09/11 03:14:42;;;;;;;768.25;65.03;;;10.80;99.90;;;;;;5033898;28;20041;-43
2022/09/11 03:17:08;;;;;;;752.45;66.30;;;10.90;99.90;;;;;;5032991;28;20037;-43
2022/09/11 03:19:34;;;;;;;626.15;58.42;;;10.90;99.90;;;;;;5032675;28;20128;-44
2022/09/11 03:22:01;;;;;;;552.58;45.63;;;10.80;99.90;;;;;;5033850;28;20053;-43
2022/09/11 03:24:27;;;;;;;641.67;64.65;;;10.90;99.90;;;;;;5033246;28;20056;-43
2022/09/11 03:26:53;;;;;;;527.03;55.20;;;10.80;99.90;;;;;;5033197;28;20480;-43
2022/09/11 03:29:19;;;;;;;577.97;54.30;;;10.90;99.90;;;;;;5015809;28;20056;-43
2022/09/11 03:31:46;;;;;;;514.03;48.47;;;10.80;99.90;;;;;;5033712;28;20049;-43
2022/09/11 03:34:12;;;;;;;694.78;64.20;;;10.60;99.90;;;;;;5033146;28;20049;-43
2022/09/11 03:36:38;;;;;;;722.05;61.85;;;10.70;99.90;;;;;;5031985;28;20404;-43
2022/09/11 03:39:04;;;;;;;702.10;59.97;;;10.60;99.90;;;;;;5032956;28;20559;-43
2022/09/11 03:41:30;;;;;;;728.70;67.28;;;10.70;99.90;;;;;;4999108;28;20136;-43
2022/09/11 03:43:56;;;;;;;886.20;66.72;;;10.80;99.90;;;;;;5033059;28;20095;-43
2022/09/11 03:46:24;;;;;;;833.67;59.17;;;10.70;99.90;;;;;;5032660;28;20134;-43
2022/09/11 03:48:50;;;;;;;518.63;37.80;;;10.80;99.90;;;;;;5016329;28;20045;-42
2022/09/11 03:51:16;;;;;;;555.15;55.80;;;10.80;99.90;;;;;;5036600;28;20049;-43
2022/09/11 03:53:43;;;;;;;532.78;52.25;;;10.80;99.90;;;;;;5035668;28;20052;-43
2022/09/11 03:56:09;;;;;;;606.05;54.45;;;10.70;99.90;;;;;;5035320;28;20045;-43
2022/09/11 03:58:35;;;;;;;729.72;59.83;;;10.60;99.90;;;;;;5036447;28;20117;-43
2022/09/11 04:01:00;;;;;;;527.92;50.88;;;10.60;99.90;;;;;;5036397;28;20053;-42
2022/09/11 04:03:26;;;;;;;580.42;59.95;;;10.70;99.90;;;;;;5034908;28;20046;-43
2022/09/11 04:06:00;;;;;;;701.88;62.38;;;10.70;99.90;;;;;;5035733;28;20048;-42
2022/09/11 04:08:27;;;;;;;587.83;52.15;;;10.60;99.90;;;;;;5035935;28;20483;-43
2022/09/11 04:10:57;;;;;;;719.00;61.03;;;10.70;99.90;;;;;;5035038;28;20061;-43
2022/09/11 04:13:28;;;;;;;786.05;60.60;;;10.70;99.90;;;;;;5036173;28;20049;-42
2022/09/11 04:15:59;;;;;;;535.92;44.75;;;10.60;99.90;;;;;;5036180;28;20135;-42
2022/09/11 04:18:26;;;;;;;638.17;57.13;;;10.60;99.90;;;;;;5037015;28;20037;-42
2022/09/11 04:20:51;;;;;;;590.90;48.42;;;10.60;99.90;;;;;;5036611;28;20081;-42
2022/09/11 04:23:17;;;;;;;495.10;42.72;;;10.70;99.90;;;;;;5036022;28;20081;-43
2022/09/11 04:25:42;;;;;;;276.92;19.65;;;10.50;99.90;;;;;;5036014;28;20041;-43
2022/09/11 04:28:08;;;;;;;140.63;24.48;;;10.40;99.90;;;;;;5035900;28;20057;-43
2022/09/11 04:30:37;;;;;;;96.13;16.33;;;10.40;99.90;;;;;;5018277;28;20098;-43
2022/09/11 04:33:04;;;;;;;150.27;15.73;;;10.30;99.90;;;;;;5035819;28;20151;-43
2022/09/11 04:35:39;;;;;;;168.88;15.80;;;10.30;99.90;;;;;;5036643;28;20179;-42
2022/09/11 04:38:08;;;;;;;130.35;17.52;;;10.30;99.90;;;;;;5034669;28;20057;-42
2022/09/11 04:40:34;;;;;;;240.27;27.75;;;10.20;99.90;;;;;;5036610;28;20045;-43
2022/09/11 04:43:01;;;;;;;466.38;47.85;;;10.30;99.90;;;;;;5035688;28;20068;-43
2022/09/11 04:45:32;;;;;;;207.75;27.60;;;10.30;99.90;;;;;;5035945;28;20056;-43
2022/09/11 04:47:59;;;;;;;285.13;38.67;;;10.40;99.90;;;;;;5034969;28;20446;-43
2022/09/11 04:50:27;;;;;;;108.82;23.60;;;10.50;99.90;;;;;;5034641;28;20045;-43
2022/09/11 04:52:53;;;;;;;239.57;30.60;;;10.50;99.90;;;;;;5035350;28;20128;-42
2022/09/11 04:55:19;;;;;;;178.55;23.25;;;10.40;99.90;;;;;;5035445;28;20052;-42
2022/09/11 04:57:45;;;;;;;612.35;57.40;;;10.50;99.90;;;;;;5034206;28;20038;-42
2022/09/11 05:00:11;;;;;;;403.13;37.08;;;10.30;99.90;;;;;;5017780;28;20042;-42
2022/09/11 05:02:37;;;;;;;194.18;26.38;;;10.30;99.90;;;;;;5035251;28;20049;-42
2022/09/11 05:05:03;;;;;;;317.52;29.67;;;10.30;99.90;;;;;;5034063;28;20061;-42
2022/09/11 05:07:30;;;;;;;250.20;36.60;;;10.50;99.90;;;;;;5034472;28;20088;-42
2022/09/11 05:09:56;;;;;;;716.53;61.15;;;10.40;99.90;;;;;;5035589;28;20060;-42
2022/09/11 05:12:22;;;;;;;395.40;36.63;;;10.40;99.90;;;;;;5035863;28;20053;-42
2022/09/11 05:14:47;;;;;;;413.48;45.13;;;10.40;99.90;;;;;;5035010;28;20049;-42
2022/09/11 05:17:13;;;;;;;169.75;25.52;;;10.50;99.90;;;;;;5034076;28;20476;-42
2022/09/11 05:19:39;;;;;;;244.57;35.78;;;10.40;99.90;;;;;;5034299;28;20051;-42
2022/09/11 05:22:05;;;;;;;490.60;44.08;;;10.40;99.90;;;;;;5033619;28;20045;-42
2022/09/11 05:24:31;;;;;;;702.92;56.10;;;10.30;99.90;;;;;;5033844;28;20546;-42
2022/09/11 05:27:00;;;;;;;236.75;24.90;;;10.40;99.90;;;;;;5034677;28;20050;-42
2022/09/11 05:29:27;;;;;;;172.15;22.60;;;10.30;99.90;;;;;;5035228;28;20088;-42
2022/09/11 05:31:59;;;;;;;162.88;26.40;;;10.40;99.90;;;;;;5034689;28;20049;-42
2022/09/11 05:34:28;;;;;;;403.45;46.17;;;10.40;99.90;;;;;;5033476;28;20045;-42
2022/09/11 05:36:58;;;;;;;630.25;53.30;;;10.30;99.90;;;;;;5018133;28;20383;-42
2022/09/11 05:39:24;;;;;;;653.22;59.13;;;10.50;99.90;;;;;;5032930;28;20068;-42
2022/09/11 05:41:51;;;;;;;645.50;57.90;;;10.60;99.90;;;;;;5033340;28;20046;-41
2022/09/11 05:44:17;;;;;;;566.88;54.10;;;10.70;99.90;;;;;;5034404;28;20049;-42
2022/09/11 05:46:42;;;;;;;376.30;49.53;;;10.80;99.90;;;;;;5033228;28;20049;-42
2022/09/11 05:49:08;;;;;;;150.23;30.50;;;10.70;99.90;;;;;;5033210;28;20045;-42
2022/09/11 05:51:36;;;;;;;565.08;57.97;;;10.80;99.90;;;;;;5034045;28;20049;-42
2022/09/11 05:54:02;;;;;;;386.27;38.67;;;10.70;99.90;;;;;;5033166;28;20080;-42
2022/09/11 05:56:28;;;;;;;529.22;55.30;;;11.00;99.90;;;;;;5034263;28;20136;-42
2022/09/11 05:58:55;;;;;;;360.90;40.88;;;11.00;99.90;;;;;;5033068;28;20085;-42
2022/09/11 06:01:22;;;;;;;346.08;46.28;;;11.00;99.90;;;;;;5033020;28;20045;-42
2022/09/11 06:03:49;;;;;;;439.73;59.13;;;11.00;99.90;;;;;;5034189;28;20053;-42
2022/09/11 06:06:17;;;;;;;206.70;38.13;;;11.30;99.90;;;;;;5034140;28;20052;-42
2022/09/11 06:08:43;;;;;;;238.70;42.55;;;11.30;99.90;;;;;;5032853;28;20038;-42
2022/09/11 06:11:10;;;;;;;132.38;36.88;;;11.20;99.90;;;;;;5034045;28;20052;-42
2022/09/11 06:13:45;;;;;;;163.63;43.47;;;11.40;99.90;;;;;;5033486;28;20049;-42
2022/09/11 06:16:13;;;;;;;96.80;37.13;;;11.40;99.90;;;;;;5034025;28;20042;-42
2022/09/11 06:18:39;;;;;;;125.97;43.22;;;11.40;99.90;;;;;;5033913;28;20118;-42
2022/09/11 06:21:07;;;;;;;126.65;42.55;;;11.60;99.90;;;;;;5033937;28;20092;-42
2022/09/11 06:23:34;;;;;;;225.10;50.10;;;11.70;99.90;;;;;;5033191;28;20391;-42
2022/09/11 06:26:28;;;;;;;132.15;44.83;;;11.60;99.90;;;;;;5033894;28;20056;-42
2022/09/11 06:28:54;;;;;;;65.78;31.83;;;11.70;99.90;;;;;;5032886;28;20049;-42
2022/09/11 06:31:24;;;;;;;74.57;37.30;;;11.80;99.90;;;;;;5032833;28;20369;-42
2022/09/11 06:33:53;;;;;;;81.05;38.80;;;11.90;99.90;;;;;;5033464;28;20049;-42
2022/09/11 06:36:23;;;;;;;48.85;29.27;;;11.90;99.90;;;;;;5033996;28;20097;-42
2022/09/11 06:38:56;;;;;;;75.05;37.58;;;12.10;99.90;;;;;;5033391;28;20511;-42
2022/09/11 06:41:23;;;;;;;;;;;12.10;99.90;;;;;;5034089;28;20056;-42
2022/09/11 06:43:49;;;;;;;77.95;42.90;;;12.80;99.90;;;;;;5033638;28;20390;-42
2022/09/11 06:46:18;;;;;;;78.15;42.15;;;13.10;99.90;;;;;;5033244;28;20582;-42
2022/09/11 06:48:46;;;;;;;78.03;43.60;;;13.10;99.90;;;;;;5033506;28;20554;-42
2022/09/11 06:51:17;;;;;;;78.43;43.30;;;13.30;99.90;;;;;;5033562;28;20046;-42
2022/09/11 06:53:44;;;;;;;77.32;41.97;;;13.60;99.90;;;;;;5033186;28;20491;-42
2022/09/11 06:56:15;;;;;;;84.05;47.25;;;13.60;99.90;;;;;;5033499;28;20049;-42
2022/09/11 06:58:41;;;;;;;77.82;44.55;;;13.70;99.90;;;;;;5033528;28;20045;-42
2022/09/11 07:01:12;;;;;;;74.43;44.65;;;13.70;99.90;;;;;;5032809;28;20414;-41
2022/09/11 07:03:46;;;;;;;64.93;41.58;;;14.00;99.90;;;;;;5033504;28;20054;-42
2022/09/11 07:06:13;;;;;;;62.83;41.50;;;14.40;99.90;;;;;;5034044;28;20041;-42
2022/09/11 07:08:39;;;;;;;67.50;43.28;;;14.50;99.90;;;;;;5033003;28;20132;-42
2022/09/11 07:11:07;;;;;;;66.05;43.15;;;14.80;99.90;;;;;;5033056;28;20065;-42
2022/09/11 07:13:33;;;;;;;65.85;41.35;;;14.70;99.90;;;;;;5033373;28;20073;-42
2022/09/11 07:16:07;;;;;;;64.47;42.35;;;14.80;99.90;;;;;;5000136;28;20053;-42
2022/09/11 07:18:35;;;;;;;53.72;39.13;;;15.10;99.90;;;;;;5032125;28;20060;-42
2022/09/11 07:21:05;;;;;;;53.53;37.25;;;15.20;99.90;;;;;;5033565;28;20050;-42
2022/09/11 07:23:31;;;;;;;51.22;37.05;;;15.70;99.90;;;;;;5034925;28;20051;-42
2022/09/11 07:26:01;;;;;;;48.88;35.50;;;15.60;99.90;;;;;;5037092;28;20056;-41
2022/09/11 07:28:27;;;;;;;47.55;34.20;;;16.00;99.90;;;;;;5037538;28;20049;-42
2022/09/11 07:30:53;;;;;;;43.05;33.55;;;16.20;99.90;;;;;;5037226;28;20376;-42
2022/09/11 07:33:18;;;;;;;34.00;28.40;;;16.30;99.90;;;;;;5036945;28;20045;-41
2022/09/11 07:35:44;;;;;;;32.42;23.20;;;16.60;99.90;;;;;;5036332;28;20049;-42
2022/09/11 07:38:10;;;;;;;29.35;22.52;;;16.70;99.90;;;;;;5035510;28;20037;-42
2022/09/11 07:40:36;;;;;;;26.27;20.67;;;16.90;99.90;;;;;;5037207;28;20053;-42
2022/09/11 07:43:02;;;;;;;21.50;18.92;;;17.00;99.90;;;;;;5036858;28;20045;-42
2022/09/11 07:45:28;;;;;;;17.33;15.57;;;17.20;99.90;;;;;;5036679;28;20410;-43
2022/09/11 07:47:54;;;;;;;16.35;13.88;;;17.30;99.90;;;;;;5036897;28;20087;-42
2022/09/11 07:50:20;;;;;;;17.90;14.85;;;17.40;99.90;;;;;;5036759;28;20128;-42
2022/09/11 07:52:47;;;;;;;12.73;11.43;;;17.60;99.90;;;;;;5037484;28;20077;-42
2022/09/11 07:55:12;;;;;;;13.73;12.27;;;17.70;99.90;;;;;;5036666;28;20452;-42
2022/09/11 07:57:38;;;;;;;14.00;12.30;;;17.80;99.90;;;;;;5036563;28;20126;-42
2022/09/11 08:00:05;;;;;;;15.05;13.20;;;17.90;99.90;;;;;;5035529;28;20127;-43
2022/09/11 08:02:31;;;;;;;13.88;12.52;;;18.00;99.90;;;;;;5036137;28;20063;-42
2022/09/11 08:04:57;;;;;;;15.13;10.93;;;18.20;99.90;;;;;;5036462;28;20523;-43
2022/09/11 08:07:22;;;;;;;14.57;11.18;;;18.20;99.90;;;;;;5035931;28;20452;-44
2022/09/11 08:09:48;;;;;;;11.65;10.55;;;18.20;99.90;;;;;;5036925;28;20380;-43
2022/09/11 08:12:14;;;;;;;12.13;9.90;;;18.20;99.90;;;;;;5036145;28;20056;-43
2022/09/11 08:14:40;;;;;;;13.45;10.65;;;18.20;99.90;;;;;;5035271;28;20049;-44
2022/09/11 08:17:05;;;;;;;11.45;9.70;;;18.20;99.90;;;;;;5036250;28;20551;-43
2022/09/11 08:19:31;;;;;;;12.15;11.02;;;18.20;99.90;;;;;;5034901;28;20132;-44
2022/09/11 08:21:57;;;;;;;11.63;10.50;;;18.20;99.90;;;;;;5036674;28;20053;-43
2022/09/11 08:24:23;;;;;;;11.68;10.07;;;18.30;99.90;;;;;;5036013;28;20064;-43
2022/09/11 08:26:49;;;;;;;12.88;10.35;;;18.30;99.90;;;;;;5035942;28;20049;-44
2022/09/11 08:29:15;;;;;;;12.20;10.68;;;18.30;26.20;;;;;;5035972;28;20099;-43
2022/09/11 08:31:41;;;;;;;13.10;10.40;;;18.30;1.00;;;;;;5035036;28;20085;-43
2022/09/11 08:34:08;;;;;;;10.75;8.07;;;18.40;1.00;;;;;;5035839;28;20499;-44
2022/09/11 08:36:33;;;;;;;10.05;8.27;;;18.40;99.90;;;;;;5036025;28;20128;-44
2022/09/11 08:39:02;;;;;;;10.15;7.65;;;18.40;99.90;;;;;;5035448;28;20096;-44
2022/09/11 08:41:58;;;;;;;8.23;6.43;;;18.50;1.00;;;;;;5035428;28;20392;-44
2022/09/11 08:44:32;;;;;;;5.47;4.50;;;18.60;99.90;;;;;;5036257;28;20053;-44
2022/09/11 08:47:05;;;;;;;5.65;4.47;;;18.80;1.00;;;;;;5035922;28;20068;-44
2022/09/11 08:49:42;;;;;;;5.60;1.65;;;18.90;99.90;;;;;;5036455;28;20046;-44
2022/09/11 08:52:14;;;;;;;8.38;2.60;;;19.00;1.00;;;;;;5035887;28;20126;-44
2022/09/11 08:54:41;;;;;;;6.75;3.58;;;19.20;62.00;;;;;;5035640;28;20050;-45
2022/09/11 08:57:12;;;;;;;6.53;3.15;;;19.30;99.90;;;;;;5035732;28;20129;-44
2022/09/11 08:59:49;;;;;;;7.15;3.50;;;19.50;99.90;;;;;;5035616;28;20510;-45
2022/09/11 09:02:55;;;;;;;4.50;2.53;;;19.50;1.00;;;;;;5035394;28;20046;-44
2022/09/11 09:05:42;;;;;;;6.20;4.20;;;19.40;99.90;;;;;;5027838;28;20103;-45
2022/09/11 09:08:26;;;;;;;7.35;4.50;;;19.30;99.90;;;;;;5033948;28;20049;-45
2022/09/11 09:11:17;;;;;;;8.98;5.63;;;19.50;99.90;;;;;;5035497;28;20400;-43
2022/09/11 09:14:08;;;;;;;6.95;3.92;;;20.40;99.90;;;;;;5024243;28;20093;-46
2022/09/11 09:16:52;;;;;;;6.88;3.95;;;21.10;1.00;;;;;;5035363;28;20075;-45
2022/09/11 09:19:40;;;;;;;7.82;3.40;;;21.80;1.00;;;;;;5035057;28;20049;-46
2022/09/11 09:22:22;;;;;;;5.60;2.13;;;22.20;99.90;;;;;;5018356;28;20128;-46
2022/09/11 09:24:59;;;;;;;2.35;1.48;;;22.80;99.90;;;;;;5033991;28;20049;-46
2022/09/11 09:27:36;;;;;;;4.68;1.55;;;23.40;99.90;;;;;;5034816;28;20041;-46
2022/09/11 09:30:05;;;;;;;4.30;1.58;;;23.90;99.90;;;;;;5035115;28;20045;-46
2022/09/11 09:32:40;;;;;;;4.95;1.63;;;24.40;1.00;;;;;;5034322;28;20389;-46
2022/09/11 09:35:17;;;;;;;5.45;2.78;;;24.70;1.00;;;;;;5017858;28;20056;-46
2022/09/11 09:37:43;;;;;;;3.67;2.25;;;24.50;99.90;;;;;;5035263;28;20041;-46
2022/09/11 09:40:09;;;;;;;6.25;2.25;;;24.60;99.90;;;;;;5035034;28;20061;-47
2022/09/11 09:42:57;;;;;;;3.22;1.48;;;25.00;99.90;;;;;;5033480;28;20095;-47
2022/09/11 09:45:51;;;;;;;4.90;1.88;;;25.70;99.90;;;;;;5034482;28;20052;-47
2022/09/11 09:48:17;;;;;;;3.58;1.48;;;27.10;99.90;;;;;;5033915;28;20068;-47
2022/09/11 09:50:43;;;;;;;3.67;1.50;;;;;;;;;;5033485;28;20479;-44
2022/09/11 09:53:34;;;;;;;3.75;1.65;;;28.20;1.00;;;;;;5034483;28;20541;-46
2022/09/11 09:56:03;;;;;;;3.35;1.50;;;28.10;1.00;;;;;;5034380;28;20049;-46
2022/09/11 09:58:38;;;;;;;6.13;1.50;;;27.90;1.00;;;;;;5034323;28;20127;-47
2022/09/11 10:01:29;;;;;;;5.20;1.88;;;27.50;1.00;;;;;;5034599;28;20049;-46
2022/09/11 10:04:19;;;;;;;4.10;2.10;;;26.90;1.00;;;;;;5034567;28;20092;-46
2022/09/11 10:06:46;;;;;;;4.90;2.25;;;25.80;99.90;;;;;;5034949;28;20052;-46
2022/09/11 10:09:24;;;;;;;3.30;1.80;;;24.70;99.90;;;;;;5034595;28;20033;-45
2022/09/11 10:11:57;;;;;;;3.88;2.28;;;23.90;99.90;;;;;;5034022;28;20045;-45
2022/09/11 10:14:23;;;;;;;;;;;23.20;99.90;;;;;;5034570;28;20077;-45
2022/09/11 10:16:50;;;;;;;3.53;2.13;;;22.60;1.00;;;;;;5033700;28;19925;-45
2022/09/11 10:19:41;;;;;;;6.07;2.15;;;22.10;1.00;;;;;;5034254;28;20068;-45
2022/09/11 10:22:24;;;;;;;3.13;1.83;;;21.80;1.00;;;;;;5034251;28;20468;-45
2022/09/11 10:25:14;;;;;;;4.25;2.25;;;21.70;99.90;;;;;;5033874;28;20136;-44
2022/09/11 10:28:04;;;;;;;4.30;1.98;;;21.60;99.90;;;;;;5033820;28;20088;-44
2022/09/11 10:30:52;;;;;;;4.57;1.95;;;21.50;99.90;;;;;;5033929;28;20067;-44
2022/09/11 10:33:22;;;;;;;5.55;1.67;;;21.40;99.90;;;;;;5033765;28;20049;-44
2022/09/11 10:35:53;;;;;;;2.65;1.67;;;21.40;99.90;;;;;;5033773;28;20053;-44
2022/09/11 10:38:40;;;;;;;6.35;1.45;;;21.50;99.90;;;;;;5034024;28;20369;-45
2022/09/11 10:41:18;;;;;;;2.70;1.63;;;21.50;46.90;;;;;;5029798;28;20053;-44
2022/09/11 10:44:02;;;;;;;4.35;1.60;;;21.70;67.20;;;;;;5033041;28;20069;-44
2022/09/11 10:46:42;;;;;;;2.75;1.50;;;22.60;1.00;;;;;;5032507;28;20053;-45
2022/09/11 10:49:19;;;;;;;4.07;1.88;;;24.10;99.90;;;;;;5033524;28;20547;-45
2022/09/11 10:52:18;;;;;;;3.92;1.20;;;25.50;99.90;;;;;;5034478;28;20049;-46
2022/09/11 10:54:57;;;;;;;2.78;1.02;;;26.80;1.00;;;;;;5010971;28;20141;-46
2022/09/11 10:57:41;;;;;;;4.28;1.30;;;27.30;1.00;;;;;;5034138;28;20041;-46
2022/09/11 11:00:27;;;;;;;3.13;1.10;;;27.80;1.00;;;;;;5037691;28;20092;-47
2022/09/11 11:03:16;;;;;;;2.97;1.10;;;27.60;99.90;;;;;;5038166;28;20038;-45
2022/09/11 11:06:18;;;;;;;6.97;1.30;;;26.70;1.00;;;;;;5037492;28;20045;-45
2022/09/11 11:09:21;;;;;;;1.10;0.75;;;25.40;99.90;;;;;;5037938;28;20041;-45
2022/09/11 11:11:59;;;;;;;;;;;24.50;1.00;;;;;;5038454;28;20050;-44
2022/09/11 11:14:50;;;;;;;2.92;1.08;;;23.70;1.00;;;;;;5037292;28;19925;-44
2022/09/11 11:17:44;;;;;;;1.48;0.73;;;23.20;83.30;;;;;;5037968;28;20049;-43
2022/09/11 11:20:31;;;;;;;3.50;1.15;;;22.80;99.90;;;;;;5037322;28;20095;-43
2022/09/11 11:23:16;;;;;;;2.95;1.15;;;22.50;99.90;;;;;;5036604;28;20137;-44
2022/09/11 11:25:55;;;;;;;3.00;0.90;;;22.40;99.90;;;;;;5037857;28;20057;-43
2022/09/11 11:28:44;;;;;;;1.75;0.90;;;22.30;99.90;;;;;;5037629;28;20107;-43
2022/09/11 11:31:36;;;;;;;4.15;1.23;;;22.30;99.90;;;;;;5037852;28;20159;-43
2022/09/11 11:34:41;;;;;;;3.03;1.08;;;22.80;1.00;;;;;;5036944;28;20049;-43
2022/09/11 11:37:26;;;;;;;3.17;0.70;;;24.40;99.90;;;;;;5037265;28;20506;-44
2022/09/11 11:39:59;;;;;;;5.20;1.35;;;;;;;;;;5035572;28;20132;-43
2022/09/11 11:42:31;;;;;;;4.95;1.88;;;;;;;;;;5036846;28;20053;-43
2022/09/11 11:45:04;;;;;;;3.25;1.35;;;;;;;;;;5036774;28;20589;-44
2022/09/11 11:47:41;;;;;;;3.25;0.98;;;;;;;;;;5036967;28;20455;-43
2022/09/11 11:50:07;;;;;;;2.67;0.90;;;;;;;;;;5037059;28;20124;-44
2022/09/11 11:52:52;;;;;;;2.53;1.00;;;;;;;;;;5036353;28;20484;-44
2022/09/11 11:55:24;;;;;;;7.68;1.10;;;;;;;;;;5036585;28;20058;-44
2022/09/11 11:58:00;;;;;;;3.35;1.00;;;;;;;;;;5036581;28;20041;-43
2022/09/11 12:00:28;;;;;;;2.85;0.75;;;;;;;;;;5036670;28;20045;-44
2022/09/11 12:03:03;;;;;;;2.15;0.80;;;;;;;;;;5037025;28;20128;-43
2022/09/11 12:05:33;;;;;;;1.90;0.73;;;;;;;;;;5019301;28;20088;-43
2022/09/11 12:08:00;;;;;;;2.30;0.77;;;;;;;;;;5036364;28;20052;-43
2022/09/11 12:10:36;;;;;;;4.28;0.98;;;27.50;1.00;;;;;;5035340;28;20439;-44
2022/09/11 12:13:06;;;;;;;4.40;1.55;;;26.80;1.00;;;;;;5036375;28;20132;-43
2022/09/11 12:15:33;;;;;;;5.32;1.00;;;26.00;1.00;;;;;;5034975;28;20049;-43
2022/09/11 12:18:02;;;;;;;6.70;1.70;;;25.40;1.00;;;;;;5036188;28;20111;-42
2022/09/11 12:20:40;;;;;;;4.50;1.17;;;25.00;1.00;;;;;;5036129;28;20058;-42
2022/09/11 12:23:29;;;;;;;5.55;1.15;;;24.60;1.00;;;;;;5036109;28;20053;-42
2022/09/11 12:26:21;;;;;;;3.03;0.80;;;24.20;1.00;;;;;;5036342;28;20056;-42
2022/09/11 12:28:48;;;;;;;2.00;0.82;;;23.90;1.00;;;;;;5034693;28;20496;-42
2022/09/11 12:31:16;;;;;;;2.65;0.80;;;23.80;1.00;;;;;;5034462;28;20463;-42
2022/09/11 12:33:51;;;;;;;2.10;0.90;;;23.80;1.00;;;;;;5036212;28;20396;-42
2022/09/11 12:36:32;;;;;;;3.80;1.00;;;24.30;55.40;;;;;;5035906;28;20055;-42
2022/09/11 12:39:27;;;;;;;2.70;0.80;;;25.40;1.00;;;;;;5035927;28;20460;-43
2022/09/11 12:42:12;;;;;;;2.47;0.70;;;26.30;1.00;;;;;;5035739;28;20072;-43
2022/09/11 12:44:47;;;;;;;2.75;0.82;;;26.70;1.00;;;;;;5052048;28;20053;-43
2022/09/11 12:47:33;;;;;;;3.10;1.10;;;26.40;99.90;;;;;;5036176;28;20057;-43
2022/09/11 12:50:13;;;;;;;4.63;1.50;;;26.10;1.00;;;;;;5034969;28;20500;-43
2022/09/11 12:52:49;;;;;;;5.78;1.38;;;25.60;1.00;;;;;;5035619;28;20052;-42
2022/09/11 12:55:30;;;;;;;3.92;1.10;;;25.20;1.00;;;;;;5035416;28;20051;-42
2022/09/11 12:58:01;;;;;;;3.38;1.55;;;25.40;1.00;;;;;;5034815;28;20053;-42
2022/09/11 13:00:42;;;;;;;2.05;0.90;;;25.50;1.00;;;;;;5036013;28;20150;-42
2022/09/11 13:03:19;;;;;;;4.35;0.95;;;25.50;1.00;;;;;;5035334;28;20049;-42
2022/09/11 13:06:03;;;;;;;2.80;1.00;;;25.20;1.00;;;;;;5034399;28;20049;-42